Fuengirola, Spain
Current Conditions -  °F | °C
As of 5:30 PM on Wednesday 22 Oct 2014 (Local Time) from LEMG Reporting Station
Clear Clear  
Wind Chill: 79°   Ceiling: Unl
Heat Index: 80°   Visibility: 6mi
Dew Point: 63°   Wind: 13mph
Humidity: 57%   Direction: 60°ENE
Pressure: 30.09"   Gusts: NA
Location:  36.54°N, 4.62°W
Report Text: LEMG 221530Z 06011KT 350V090 CAVOK 26/17 Q1019 NOSIG
Loading
Personal Weather Stations






























Interactive Weather Map
Tropical Storm Tracking
New forecast layout! Learn more

10-Day Weather Forecast

Advertisements
Track Severe Weather on mobile